createdAt,value
2023-05-21T00:00:44.461Z,10.89
2023-05-21T00:03:14.292Z,10.89
2023-05-21T00:05:45.335Z,10.90
2023-05-21T00:08:13.049Z,10.90
2023-05-21T00:10:40.623Z,10.91
2023-05-21T00:13:09.234Z,10.91
2023-05-21T00:15:36.673Z,10.91
2023-05-21T00:18:04.467Z,10.88
2023-05-21T00:20:35.731Z,10.85
2023-05-21T00:23:05.443Z,10.80
2023-05-21T00:25:32.762Z,10.81
2023-05-21T00:28:00.421Z,10.85
2023-05-21T00:30:27.817Z,10.85
2023-05-21T00:32:55.231Z,10.86
2023-05-21T00:35:22.786Z,10.87
2023-05-21T00:37:50.369Z,10.87
2023-05-21T00:40:19.547Z,10.86
2023-05-21T00:42:48.440Z,10.82
2023-05-21T00:45:16.145Z,10.82
2023-05-21T00:47:44.384Z,10.82
2023-05-21T00:50:12.306Z,10.81
2023-05-21T00:52:42.322Z,10.80
2023-05-21T00:55:11.152Z,10.82
2023-05-21T00:57:40.524Z,10.84
2023-05-21T01:00:10.932Z,10.85
2023-05-21T01:02:38.841Z,10.86
2023-05-21T01:05:07.370Z,10.88
2023-05-21T01:07:36.250Z,10.89
2023-05-21T01:10:06.370Z,10.91
2023-05-21T01:12:35.901Z,10.92
2023-05-21T01:15:06.672Z,10.95
2023-05-21T01:17:35.766Z,10.95
2023-05-21T01:20:11.744Z,10.95
2023-05-21T01:22:47.893Z,10.96
2023-05-21T01:25:16.826Z,10.94
2023-05-21T01:27:44.379Z,10.97
2023-05-21T01:30:13.596Z,10.98
2023-05-21T01:32:48.252Z,10.96
2023-05-21T01:35:21.245Z,10.97
2023-05-21T01:37:53.521Z,11.00
2023-05-21T01:40:23.924Z,11.02
2023-05-21T01:42:52.210Z,11.02
2023-05-21T01:45:22.685Z,11.02
2023-05-21T01:47:54.194Z,10.98
2023-05-21T01:50:23.941Z,11.00
2023-05-21T01:52:53.021Z,10.96
2023-05-21T01:55:25.452Z,10.90
2023-05-21T01:57:53.673Z,10.90
2023-05-21T02:00:21.907Z,10.89
2023-05-21T02:02:49.333Z,10.89
2023-05-21T02:05:16.887Z,10.86
2023-05-21T02:07:45.413Z,10.89
2023-05-21T02:10:13.180Z,10.89
2023-05-21T02:12:43.315Z,10.90
2023-05-21T02:15:12.053Z,10.88
2023-05-21T02:17:40.787Z,10.88
2023-05-21T02:20:12.632Z,10.89
2023-05-21T02:22:43.116Z,10.92
2023-05-21T02:25:12.120Z,10.92
2023-05-21T02:27:42.732Z,10.94
2023-05-21T02:30:11.826Z,10.94
2023-05-21T02:32:42.865Z,10.91
2023-05-21T02:35:12.263Z,10.87
2023-05-21T02:37:40.841Z,10.82
2023-05-21T02:40:10.238Z,10.76
2023-05-21T02:42:39.950Z,10.70
2023-05-21T02:45:11.914Z,10.67
2023-05-21T02:47:42.193Z,10.64
2023-05-21T02:50:10.275Z,10.60
2023-05-21T02:52:46.559Z,10.59
2023-05-21T02:55:14.042Z,10.53
2023-05-21T02:57:41.566Z,10.49
2023-05-21T03:00:12.056Z,10.48
2023-05-21T03:02:40.932Z,10.44
2023-05-21T03:05:10.485Z,10.46
2023-05-21T03:07:38.047Z,10.47
2023-05-21T03:10:06.714Z,10.49
2023-05-21T03:12:34.580Z,10.51
2023-05-21T03:15:02.010Z,10.53
2023-05-21T03:17:36.473Z,10.54
2023-05-21T03:20:05.394Z,10.53
2023-05-21T03:22:33.948Z,10.54
2023-05-21T03:25:04.610Z,10.60
2023-05-21T03:27:35.012Z,10.63
2023-05-21T03:30:06.969Z,10.67
2023-05-21T03:32:45.285Z,10.67
2023-05-21T03:35:12.766Z,10.68
2023-05-21T03:37:40.447Z,10.68
2023-05-21T03:40:09.004Z,10.71
2023-05-21T03:42:36.909Z,10.70
2023-05-21T03:45:04.958Z,10.66
2023-05-21T03:47:36.376Z,10.65
2023-05-21T03:50:09.566Z,10.67
2023-05-21T03:52:37.467Z,10.68
2023-05-21T03:55:06.875Z,10.67
2023-05-21T03:57:34.589Z,10.66
2023-05-21T04:00:02.111Z,10.64
2023-05-21T04:02:33.544Z,10.65
2023-05-21T04:05:01.329Z,10.64
2023-05-21T04:07:31.276Z,10.62
2023-05-21T04:09:58.748Z,10.62
2023-05-21T04:12:26.330Z,10.61
2023-05-21T04:14:53.812Z,10.57
2023-05-21T04:17:21.937Z,10.59
2023-05-21T04:19:50.857Z,10.60
2023-05-21T04:22:18.538Z,10.61
2023-05-21T04:24:48.946Z,10.62
2023-05-21T04:27:19.616Z,10.66
2023-05-21T04:29:50.588Z,10.68
2023-05-21T04:32:18.224Z,10.70
2023-05-21T04:34:45.536Z,10.72
2023-05-21T04:37:13.087Z,10.70
2023-05-21T04:39:41.261Z,10.66
2023-05-21T04:42:11.213Z,10.67
2023-05-21T04:44:40.544Z,10.64
2023-05-21T04:47:08.215Z,10.60
2023-05-21T04:49:37.142Z,10.62
2023-05-21T04:52:05.013Z,10.68
2023-05-21T04:54:32.606Z,10.75
2023-05-21T04:57:00.122Z,10.77
2023-05-21T04:59:29.170Z,10.86
2023-05-21T05:01:56.505Z,10.81
2023-05-21T05:04:24.267Z,10.73
2023-05-21T05:06:52.635Z,10.71
2023-05-21T05:09:21.789Z,10.74
2023-05-21T05:11:49.408Z,10.75
2023-05-21T05:14:16.910Z,10.80
2023-05-21T05:16:48.376Z,10.93
2023-05-21T05:19:16.812Z,11.05
2023-05-21T05:21:44.919Z,11.10
2023-05-21T05:24:12.722Z,11.08
2023-05-21T05:26:40.219Z,11.13
2023-05-21T05:29:07.922Z,11.13
2023-05-21T05:31:35.503Z,11.07
2023-05-21T05:34:04.402Z,11.01
2023-05-21T05:36:32.438Z,10.94
2023-05-21T05:39:00.182Z,10.87
2023-05-21T05:41:28.025Z,10.85
2023-05-21T05:43:56.421Z,10.87
2023-05-21T05:46:26.820Z,10.90
2023-05-21T05:48:54.178Z,10.90
2023-05-21T05:51:22.916Z,10.89
2023-05-21T05:53:50.278Z,10.88
2023-05-21T05:56:18.179Z,10.85
2023-05-21T05:58:45.559Z,10.86
2023-05-21T06:01:15.242Z,10.85
2023-05-21T06:03:42.938Z,10.84
2023-05-21T06:06:13.397Z,10.85
2023-05-21T06:08:42.352Z,10.84
2023-05-21T06:11:11.109Z,10.82
2023-05-21T06:13:38.624Z,10.84
2023-05-21T06:16:07.840Z,10.91
2023-05-21T06:18:35.426Z,10.97
2023-05-21T06:21:02.834Z,11.12
2023-05-21T06:23:32.786Z,11.24
2023-05-21T06:26:02.184Z,11.27
2023-05-21T06:28:30.028Z,11.33
2023-05-21T06:30:59.602Z,11.34
2023-05-21T06:33:29.373Z,11.39
2023-05-21T06:35:56.800Z,11.39
2023-05-21T06:38:24.500Z,11.43
2023-05-21T06:40:52.044Z,11.49
2023-05-21T06:43:36.878Z,11.56
2023-05-21T06:46:23.029Z,11.61
2023-05-21T06:48:55.398Z,11.59
2023-05-21T06:51:23.143Z,11.59
2023-05-21T06:53:52.094Z,11.62
2023-05-21T06:56:19.627Z,11.67
2023-05-21T06:58:48.511Z,11.71
2023-05-21T07:01:17.381Z,11.70
2023-05-21T07:03:45.921Z,11.79
2023-05-21T07:06:13.358Z,11.82
2023-05-21T07:08:41.693Z,11.89
2023-05-21T07:11:09.769Z,11.93
2023-05-21T07:13:37.443Z,11.92
2023-05-21T07:16:07.651Z,11.97
2023-05-21T07:18:36.390Z,12.02
2023-05-21T07:21:04.192Z,12.07
2023-05-21T07:23:31.608Z,12.13
2023-05-21T07:25:59.073Z,12.20
2023-05-21T07:28:26.638Z,12.31
2023-05-21T07:30:54.944Z,12.44
2023-05-21T07:33:29.877Z,12.62
2023-05-21T07:35:58.294Z,12.72
2023-05-21T07:38:26.343Z,12.91
2023-05-21T07:40:53.948Z,13.18
2023-05-21T07:43:21.728Z,13.35
2023-05-21T07:45:49.226Z,13.50
2023-05-21T07:48:16.985Z,13.44
2023-05-21T07:50:56.692Z,13.44
2023-05-21T07:53:24.140Z,13.40
2023-05-21T07:55:52.122Z,13.32
2023-05-21T07:58:24.732Z,13.24
2023-05-21T08:00:52.148Z,13.25
2023-05-21T08:03:19.703Z,13.55
2023-05-21T08:05:51.091Z,13.84
2023-05-21T08:08:22.224Z,14.00
2023-05-21T08:10:51.936Z,13.87
2023-05-21T08:13:20.266Z,13.80
2023-05-21T08:15:51.320Z,13.75
2023-05-21T08:18:23.995Z,13.65
2023-05-21T08:20:54.417Z,13.52
2023-05-21T08:23:24.042Z,13.43
2023-05-21T08:25:55.011Z,13.48
2023-05-21T08:28:23.685Z,13.67
2023-05-21T08:30:52.619Z,13.74
2023-05-21T08:33:22.887Z,13.73
2023-05-21T08:35:50.319Z,13.70
2023-05-21T08:38:23.572Z,13.56
2023-05-21T08:41:27.668Z,13.52
2023-05-21T08:43:59.898Z,13.43
2023-05-21T08:46:31.563Z,13.29
2023-05-21T08:48:59.579Z,13.22
2023-05-21T08:51:27.348Z,13.12
2023-05-21T08:53:57.880Z,13.09
2023-05-21T08:56:26.606Z,13.14
2023-05-21T08:58:58.993Z,13.13
2023-05-21T09:01:30.073Z,13.10
2023-05-21T09:04:19.642Z,13.16
2023-05-21T09:06:55.046Z,13.23
2023-05-21T09:09:49.564Z,13.42
2023-05-21T09:12:17.666Z,13.53
2023-05-21T09:14:47.469Z,13.62
2023-05-21T09:17:18.003Z,13.68
2023-05-21T09:20:14.718Z,13.75
2023-05-21T09:22:51.875Z,13.75
2023-05-21T09:25:23.227Z,13.82
2023-05-21T09:27:51.275Z,13.84
2023-05-21T09:30:23.025Z,13.81
2023-05-21T09:32:56.792Z,13.84
2023-05-21T09:35:24.503Z,13.91
2023-05-21T09:37:53.531Z,13.94
2023-05-21T09:40:24.065Z,13.99
2023-05-21T09:42:53.376Z,13.94
2023-05-21T09:45:21.721Z,13.89
2023-05-21T09:47:51.292Z,13.87
2023-05-21T09:50:21.082Z,13.86
2023-05-21T09:52:56.011Z,13.84
2023-05-21T09:55:26.818Z,13.86
2023-05-21T09:57:54.139Z,13.91
2023-05-21T10:00:22.911Z,13.94
2023-05-21T10:02:54.544Z,14.03
2023-05-21T10:05:26.262Z,14.13
2023-05-21T10:07:59.395Z,14.31
2023-05-21T10:10:29.299Z,14.43
2023-05-21T10:13:00.879Z,14.48
2023-05-21T10:15:33.150Z,14.53
2023-05-21T10:18:01.769Z,14.59
2023-05-21T10:20:29.777Z,14.63
2023-05-21T10:22:59.076Z,14.72
2023-05-21T10:25:28.887Z,14.77
2023-05-21T10:27:57.426Z,14.79
2023-05-21T10:30:25.649Z,14.83
2023-05-21T10:32:55.982Z,14.96
2023-05-21T10:35:24.680Z,15.15
2023-05-21T10:37:54.399Z,15.43
2023-05-21T10:40:22.160Z,15.90
2023-05-21T10:43:26.670Z,16.13
2023-05-21T10:46:24.704Z,15.99
2023-05-21T10:49:04.757Z,15.96
2023-05-21T10:51:45.409Z,16.10
2023-05-21T10:54:52.991Z,16.14
2023-05-21T10:57:48.116Z,15.83
2023-05-21T11:00:21.337Z,15.41
2023-05-21T11:02:52.051Z,15.04
2023-05-21T11:06:00.833Z,14.84
2023-05-21T11:08:39.069Z,14.69
2023-05-21T11:11:06.573Z,14.70
2023-05-21T11:13:49.859Z,14.86
2023-05-21T11:16:21.915Z,14.97
2023-05-21T11:19:02.430Z,15.08
2023-05-21T11:21:31.455Z,15.16
2023-05-21T11:24:04.880Z,15.33
2023-05-21T11:27:02.566Z,15.48
2023-05-21T11:29:45.944Z,15.42
2023-05-21T11:32:17.530Z,15.31
2023-05-21T11:34:46.603Z,15.25
2023-05-21T11:37:40.877Z,15.26
2023-05-21T11:40:28.473Z,15.30
2023-05-21T11:42:57.066Z,15.30
2023-05-21T11:45:29.496Z,15.12
2023-05-21T11:47:58.986Z,14.73
2023-05-21T11:50:27.564Z,14.44
2023-05-21T11:52:55.183Z,14.30
2023-05-21T11:55:23.095Z,14.21
2023-05-21T11:57:53.690Z,14.07
2023-05-21T12:00:22.029Z,14.07
2023-05-21T12:02:51.855Z,14.09
2023-05-21T12:05:21.078Z,14.17
2023-05-21T12:07:50.258Z,14.27
2023-05-21T12:10:21.935Z,14.46
2023-05-21T12:12:55.574Z,14.55
2023-05-21T12:15:26.410Z,14.64
2023-05-21T12:17:55.487Z,14.66
2023-05-21T12:20:27.204Z,14.66
2023-05-21T12:22:54.619Z,14.64
2023-05-21T12:25:22.393Z,14.68
2023-05-21T12:27:58.008Z,14.72
2023-05-21T12:30:26.218Z,14.73
2023-05-21T12:32:53.807Z,14.76
2023-05-21T12:35:22.904Z,14.82
2023-05-21T12:37:52.722Z,14.78
2023-05-21T12:40:20.501Z,14.77
2023-05-21T12:42:49.783Z,14.74
2023-05-21T12:45:19.156Z,14.74
2023-05-21T12:47:50.380Z,14.77
2023-05-21T12:50:21.497Z,14.88
2023-05-21T12:52:49.220Z,14.95
2023-05-21T12:55:18.798Z,15.10
2023-05-21T12:57:46.713Z,15.50
2023-05-21T13:00:14.537Z,16.39
2023-05-21T13:02:44.946Z,17.21
2023-05-21T13:05:20.085Z,17.59
2023-05-21T13:07:48.158Z,17.60
2023-05-21T13:10:19.221Z,17.54
2023-05-21T13:12:49.696Z,17.33
2023-05-21T13:15:17.890Z,16.88
2023-05-21T13:17:46.849Z,16.51
2023-05-21T13:20:16.897Z,16.26
2023-05-21T13:22:48.532Z,16.15
2023-05-21T13:25:16.445Z,16.14
2023-05-21T13:27:44.395Z,16.07
2023-05-21T13:30:13.350Z,16.06
2023-05-21T13:32:42.235Z,16.06
2023-05-21T13:35:11.382Z,16.10
2023-05-21T13:37:40.012Z,16.14
2023-05-21T13:40:11.301Z,16.15
2023-05-21T13:42:39.014Z,16.09
2023-05-21T13:45:07.871Z,15.99
2023-05-21T13:47:39.921Z,16.04
2023-05-21T13:50:08.842Z,16.01
2023-05-21T13:52:36.583Z,16.03
2023-05-21T13:55:04.274Z,16.07
2023-05-21T13:57:31.884Z,16.14
2023-05-21T13:59:59.712Z,16.32
2023-05-21T14:02:27.398Z,16.70
2023-05-21T14:04:56.588Z,17.14
2023-05-21T14:07:23.972Z,17.27
2023-05-21T14:09:52.458Z,17.24
2023-05-21T14:12:20.144Z,16.96
2023-05-21T14:14:49.965Z,16.73
2023-05-21T14:17:17.804Z,16.61
2023-05-21T14:19:45.121Z,16.52
2023-05-21T14:22:13.996Z,16.97
2023-05-21T14:24:41.681Z,17.41
2023-05-21T14:27:09.431Z,17.44
2023-05-21T14:29:36.925Z,17.20
2023-05-21T14:32:04.717Z,16.92
2023-05-21T14:34:32.226Z,16.70
2023-05-21T14:36:59.723Z,16.62
2023-05-21T14:39:28.470Z,16.37
2023-05-21T14:41:55.999Z,16.25
2023-05-21T14:44:23.441Z,16.23
2023-05-21T14:46:51.561Z,16.22
2023-05-21T14:49:19.082Z,16.28
2023-05-21T14:51:47.724Z,16.56
2023-05-21T14:54:15.099Z,16.91
2023-05-21T14:56:44.062Z,17.15
2023-05-21T14:59:12.972Z,17.13
2023-05-21T15:01:40.809Z,17.05
2023-05-21T15:04:08.367Z,16.85
2023-05-21T15:06:36.117Z,16.61
2023-05-21T15:09:03.466Z,16.50
2023-05-21T15:11:30.838Z,16.37
2023-05-21T15:13:59.514Z,16.30
2023-05-21T15:16:26.953Z,16.30
2023-05-21T15:18:54.438Z,16.21
2023-05-21T15:21:21.853Z,16.11
2023-05-21T15:23:49.240Z,16.04
2023-05-21T15:26:16.618Z,16.02
2023-05-21T15:28:44.187Z,16.03
2023-05-21T15:31:12.886Z,16.12
2023-05-21T15:33:40.166Z,16.26
2023-05-21T15:36:08.228Z,16.37
2023-05-21T15:38:35.499Z,16.45
2023-05-21T15:41:03.505Z,16.42
2023-05-21T15:43:31.450Z,16.36
2023-05-21T15:45:59.021Z,16.30
2023-05-21T15:48:27.732Z,16.20
2023-05-21T15:50:56.588Z,16.14
2023-05-21T15:53:24.354Z,16.11
2023-05-21T15:55:51.640Z,16.08
2023-05-21T15:58:18.971Z,16.11
2023-05-21T16:00:46.421Z,16.07
2023-05-21T16:03:14.155Z,15.96
2023-05-21T16:05:42.860Z,15.86
2023-05-21T16:08:12.288Z,15.80
2023-05-21T16:10:40.177Z,15.78
2023-05-21T16:13:08.870Z,15.76
2023-05-21T16:15:36.371Z,15.75
2023-05-21T16:18:04.048Z,15.71
2023-05-21T16:20:31.642Z,15.68
2023-05-21T16:23:00.470Z,15.70
2023-05-21T16:25:28.020Z,15.71
2023-05-21T16:27:55.444Z,15.72
2023-05-21T16:30:22.824Z,15.71
2023-05-21T16:32:50.152Z,15.68
2023-05-21T16:35:20.844Z,15.64
2023-05-21T16:37:48.170Z,15.59
2023-05-21T16:40:17.089Z,15.56
2023-05-21T16:42:44.418Z,15.55
2023-05-21T16:45:19.596Z,15.52
2023-05-21T16:47:47.809Z,15.50
2023-05-21T16:50:15.461Z,15.48
2023-05-21T16:52:42.918Z,15.46
2023-05-21T16:55:10.820Z,15.42
2023-05-21T16:57:39.653Z,15.41
2023-05-21T17:00:08.007Z,15.39
2023-05-21T17:02:35.575Z,15.35
2023-05-21T17:05:03.050Z,15.30
2023-05-21T17:07:31.724Z,15.25
2023-05-21T17:09:59.134Z,15.22
2023-05-21T17:12:26.605Z,15.24
2023-05-21T17:14:55.654Z,15.19
2023-05-21T17:17:23.404Z,15.14
2023-05-21T17:19:50.899Z,15.07
2023-05-21T17:22:18.175Z,15.00
2023-05-21T17:24:46.157Z,14.91
2023-05-21T17:27:13.739Z,14.88
2023-05-21T17:29:41.612Z,14.86
2023-05-21T17:32:10.414Z,14.81
2023-05-21T17:34:38.255Z,14.75
2023-05-21T17:37:07.014Z,14.65
2023-05-21T17:39:34.449Z,14.60
2023-05-21T17:42:02.187Z,14.56
2023-05-21T17:44:29.605Z,14.53
2023-05-21T17:46:57.092Z,14.54
2023-05-21T17:49:26.094Z,14.55
2023-05-21T17:51:53.717Z,14.56
2023-05-21T17:54:21.508Z,14.58
2023-05-21T17:56:49.176Z,14.59
2023-05-21T17:59:16.772Z,14.57
2023-05-21T18:01:44.313Z,14.57
2023-05-21T18:04:12.998Z,14.54
2023-05-21T18:06:42.919Z,14.53
2023-05-21T18:09:13.294Z,14.52
2023-05-21T18:11:43.480Z,14.49
2023-05-21T18:14:11.408Z,14.45
2023-05-21T18:16:38.846Z,14.40
2023-05-21T18:19:06.778Z,14.37
2023-05-21T18:21:35.281Z,14.31
2023-05-21T18:24:05.036Z,14.23
2023-05-21T18:26:32.560Z,14.18
2023-05-21T18:29:00.222Z,14.11
2023-05-21T18:31:28.193Z,14.03
2023-05-21T18:33:55.774Z,13.96
2023-05-21T18:36:24.070Z,13.91
2023-05-21T18:38:52.441Z,13.84
2023-05-21T18:41:22.518Z,13.81
2023-05-21T18:43:50.196Z,13.77
2023-05-21T18:46:17.596Z,13.73
2023-05-21T18:48:46.232Z,13.68
2023-05-21T18:51:15.028Z,13.63
2023-05-21T18:53:42.552Z,13.58
2023-05-21T18:56:10.431Z,13.53
2023-05-21T18:58:39.266Z,13.48
2023-05-21T19:01:06.992Z,13.42
2023-05-21T19:03:34.388Z,13.35
2023-05-21T19:06:01.920Z,13.31
2023-05-21T19:08:29.366Z,13.26
2023-05-21T19:10:56.802Z,13.22
2023-05-21T19:13:24.239Z,13.15
2023-05-21T19:15:53.190Z,13.08
2023-05-21T19:18:20.808Z,13.01
2023-05-21T19:20:48.186Z,12.97
2023-05-21T19:23:15.584Z,12.91
2023-05-21T19:25:43.046Z,12.85
2023-05-21T19:28:10.493Z,12.79
2023-05-21T19:30:38.239Z,12.73
2023-05-21T19:33:07.229Z,12.67
2023-05-21T19:35:35.072Z,12.63
2023-05-21T19:38:04.947Z,12.58
2023-05-21T19:40:33.823Z,12.55
2023-05-21T19:43:01.499Z,12.50
2023-05-21T19:45:29.102Z,12.46
2023-05-21T19:47:56.767Z,12.41
2023-05-21T19:50:28.769Z,12.36
2023-05-21T19:52:57.320Z,12.35
2023-05-21T19:55:25.118Z,12.30
2023-05-21T19:57:52.909Z,12.29
2023-05-21T20:00:21.118Z,12.27
2023-05-21T20:02:48.692Z,12.24
2023-05-21T20:05:16.381Z,12.21
2023-05-21T20:07:45.469Z,12.19
2023-05-21T20:10:12.824Z,12.14
2023-05-21T20:12:40.475Z,12.10
2023-05-21T20:15:08.622Z,12.06
2023-05-21T20:17:36.265Z,11.99
2023-05-21T20:20:11.253Z,11.96
2023-05-21T20:22:38.719Z,11.91
2023-05-21T20:25:08.843Z,11.88
2023-05-21T20:27:38.802Z,11.84
2023-05-21T20:30:07.709Z,11.81
2023-05-21T20:32:35.040Z,11.79
2023-05-21T20:35:03.678Z,11.73
2023-05-21T20:37:33.992Z,11.66
2023-05-21T20:40:01.494Z,11.60
2023-05-21T20:42:35.055Z,11.54
2023-05-21T20:45:03.413Z,11.54
2023-05-21T20:47:34.738Z,11.54
2023-05-21T20:50:04.320Z,11.53
2023-05-21T20:52:32.852Z,11.46
2023-05-21T20:55:00.657Z,11.36
2023-05-21T20:57:28.727Z,11.26
2023-05-21T20:59:57.374Z,11.18
2023-05-21T21:02:25.165Z,11.11
2023-05-21T21:04:53.942Z,11.06
2023-05-21T21:07:21.691Z,11.00
2023-05-21T21:09:49.634Z,10.99
2023-05-21T21:14:47.241Z,11.04
2023-05-21T21:17:16.218Z,11.06
2023-05-21T21:19:43.627Z,11.08
2023-05-21T21:22:11.250Z,11.13
2023-05-21T21:24:38.597Z,11.16
2023-05-21T21:27:06.861Z,11.16
2023-05-21T21:29:34.068Z,11.12
2023-05-21T21:32:01.844Z,11.11
2023-05-21T21:34:30.837Z,11.10
2023-05-21T21:36:58.111Z,11.03
2023-05-21T21:39:26.908Z,10.91
2023-05-21T21:41:54.557Z,10.79
2023-05-21T21:44:21.913Z,10.74
2023-05-21T21:46:49.304Z,10.73
2023-05-21T21:49:19.833Z,10.72
2023-05-21T21:51:49.229Z,10.72
2023-05-21T21:54:16.928Z,10.71
2023-05-21T21:56:44.219Z,10.69
2023-05-21T21:59:11.674Z,10.65
2023-05-21T22:01:39.099Z,10.65
2023-05-21T22:04:06.721Z,10.66
2023-05-21T22:06:34.174Z,10.69
2023-05-21T22:09:03.021Z,10.71
2023-05-21T22:11:30.581Z,10.73
2023-05-21T22:13:57.911Z,10.75
2023-05-21T22:16:25.388Z,10.79
2023-05-21T22:18:54.365Z,10.81
2023-05-21T22:21:27.191Z,10.82
2023-05-21T22:23:54.814Z,10.82
2023-05-21T22:26:24.343Z,10.86
2023-05-21T22:28:51.757Z,10.87
2023-05-21T22:31:19.431Z,10.87
2023-05-21T22:33:47.031Z,10.86
2023-05-21T22:36:14.644Z,10.81
2023-05-21T22:38:43.615Z,10.70
2023-05-21T22:41:11.393Z,10.59
2023-05-21T22:43:40.166Z,10.53
2023-05-21T22:46:07.595Z,10.48
2023-05-21T22:48:37.394Z,10.43
2023-05-21T22:51:05.708Z,10.36
2023-05-21T22:53:33.705Z,10.33
2023-05-21T22:56:01.498Z,10.33
2023-05-21T22:58:29.053Z,10.32
2023-05-21T23:00:58.088Z,10.33
2023-05-21T23:03:25.574Z,10.31
2023-05-21T23:05:52.824Z,10.31
2023-05-21T23:08:20.236Z,10.28
2023-05-21T23:10:47.679Z,10.27
2023-05-21T23:13:15.123Z,10.27
2023-05-21T23:15:43.971Z,10.25
2023-05-21T23:18:13.256Z,10.23
2023-05-21T23:20:41.359Z,10.20
2023-05-21T23:23:09.536Z,10.13
2023-05-21T23:25:37.467Z,10.06
2023-05-21T23:28:05.345Z,10.01
2023-05-21T23:30:32.724Z,9.99
2023-05-21T23:33:00.749Z,10.00
2023-05-21T23:35:29.698Z,9.98
2023-05-21T23:37:57.373Z,9.97
2023-05-21T23:40:24.915Z,9.96
2023-05-21T23:42:53.760Z,9.96
2023-05-21T23:45:21.190Z,9.96
2023-05-21T23:47:48.601Z,9.97
2023-05-21T23:50:16.617Z,9.98
2023-05-21T23:52:45.582Z,9.98
2023-05-21T23:55:14.955Z,10.01
2023-05-21T23:57:42.471Z,10.03
